sensor_id;sensor_type;location;lat;lon;timestamp;P1;durP1;ratioP1;P2;durP2;ratioP2
12725;SDS011;6427;49.754;6.106;2023-04-05T00:01:28;6.90;;;4.37;;
12725;SDS011;6427;49.754;6.106;2023-04-05T00:03:55;6.70;;;5.47;;
12725;SDS011;6427;49.754;6.106;2023-04-05T00:06:26;9.77;;;5.13;;
12725;SDS011;6427;49.754;6.106;2023-04-05T00:09:02;8.07;;;4.70;;
12725;SDS011;6427;49.754;6.106;2023-04-05T00:11:30;7.37;;;4.50;;
12725;SDS011;6427;49.754;6.106;2023-04-05T00:14:00;7.73;;;4.33;;
12725;SDS011;6427;49.754;6.106;2023-04-05T00:16:28;6.97;;;4.70;;
12725;SDS011;6427;49.754;6.106;2023-04-05T00:18:55;6.77;;;4.17;;
12725;SDS011;6427;49.754;6.106;2023-04-05T00:21:23;4.93;;;4.20;;
12725;SDS011;6427;49.754;6.106;2023-04-05T00:23:54;7.87;;;5.00;;
12725;SDS011;6427;49.754;6.106;2023-04-05T00:26:18;7.83;;;4.07;;
12725;SDS011;6427;49.754;6.106;2023-04-05T00:28:48;6.23;;;4.07;;
12725;SDS011;6427;49.754;6.106;2023-04-05T00:31:15;8.63;;;5.15;;
12725;SDS011;6427;49.754;6.106;2023-04-05T00:33:43;6.87;;;4.67;;
12725;SDS011;6427;49.754;6.106;2023-04-05T00:36:15;7.97;;;4.33;;
12725;SDS011;6427;49.754;6.106;2023-04-05T00:38:38;6.30;;;4.37;;
12725;SDS011;6427;49.754;6.106;2023-04-05T00:41:06;5.77;;;4.07;;
12725;SDS011;6427;49.754;6.106;2023-04-05T00:43:33;6.67;;;4.63;;
12725;SDS011;6427;49.754;6.106;2023-04-05T00:46:01;7.27;;;4.37;;
12725;SDS011;6427;49.754;6.106;2023-04-05T00:48:28;7.60;;;4.17;;
12725;SDS011;6427;49.754;6.106;2023-04-05T00:50:56;6.05;;;5.15;;
12725;SDS011;6427;49.754;6.106;2023-04-05T00:53:23;5.50;;;4.20;;
12725;SDS011;6427;49.754;6.106;2023-04-05T00:55:51;8.00;;;5.13;;
12725;SDS011;6427;49.754;6.106;2023-04-05T00:58:19;11.20;;;6.90;;
12725;SDS011;6427;49.754;6.106;2023-04-05T01:00:50;8.87;;;5.07;;
12725;SDS011;6427;49.754;6.106;2023-04-05T01:03:13;6.77;;;4.60;;
12725;SDS011;6427;49.754;6.106;2023-04-05T01:05:46;8.70;;;4.93;;
12725;SDS011;6427;49.754;6.106;2023-04-05T01:08:20;9.73;;;5.23;;
12725;SDS011;6427;49.754;6.106;2023-04-05T01:10:53;8.67;;;5.03;;
12725;SDS011;6427;49.754;6.106;2023-04-05T01:13:15;8.50;;;4.30;;
12725;SDS011;6427;49.754;6.106;2023-04-05T01:15:42;8.97;;;4.57;;
12725;SDS011;6427;49.754;6.106;2023-04-05T01:18:10;8.33;;;4.83;;
12725;SDS011;6427;49.754;6.106;2023-04-05T01:20:39;8.40;;;4.93;;
12725;SDS011;6427;49.754;6.106;2023-04-05T01:23:16;8.87;;;5.43;;
12725;SDS011;6427;49.754;6.106;2023-04-05T01:26:03;12.85;;;7.68;;
12725;SDS011;6427;49.754;6.106;2023-04-05T01:31:25;36.63;;;13.40;;
12725;SDS011;6427;49.754;6.106;2023-04-05T01:33:54;23.03;;;9.50;;
12725;SDS011;6427;49.754;6.106;2023-04-05T01:36:24;34.43;;;11.27;;
12725;SDS011;6427;49.754;6.106;2023-04-05T01:38:50;33.97;;;12.43;;
12725;SDS011;6427;49.754;6.106;2023-04-05T01:41:18;31.67;;;11.93;;
12725;SDS011;6427;49.754;6.106;2023-04-05T01:43:45;30.97;;;11.00;;
12725;SDS011;6427;49.754;6.106;2023-04-05T01:46:13;16.17;;;7.57;;
12725;SDS011;6427;49.754;6.106;2023-04-05T01:48:40;11.70;;;6.40;;
12725;SDS011;6427;49.754;6.106;2023-04-05T01:51:08;9.37;;;5.23;;
12725;SDS011;6427;49.754;6.106;2023-04-05T01:53:35;10.45;;;6.65;;
12725;SDS011;6427;49.754;6.106;2023-04-05T01:56:03;8.80;;;5.80;;
12725;SDS011;6427;49.754;6.106;2023-04-05T01:58:30;9.97;;;5.77;;
12725;SDS011;6427;49.754;6.106;2023-04-05T02:00:58;11.43;;;6.00;;
12725;SDS011;6427;49.754;6.106;2023-04-05T02:03:26;9.00;;;7.03;;
12725;SDS011;6427;49.754;6.106;2023-04-05T02:05:53;9.53;;;6.03;;
12725;SDS011;6427;49.754;6.106;2023-04-05T02:08:21;6.40;;;4.83;;
12725;SDS011;6427;49.754;6.106;2023-04-05T02:10:48;6.50;;;4.70;;
12725;SDS011;6427;49.754;6.106;2023-04-05T02:13:16;7.73;;;5.10;;
12725;SDS011;6427;49.754;6.106;2023-04-05T02:15:49;10.27;;;6.20;;
12725;SDS011;6427;49.754;6.106;2023-04-05T02:18:17;9.43;;;4.67;;
12725;SDS011;6427;49.754;6.106;2023-04-05T02:20:44;10.47;;;5.87;;
12725;SDS011;6427;49.754;6.106;2023-04-05T02:23:12;11.00;;;5.87;;
12725;SDS011;6427;49.754;6.106;2023-04-05T02:25:39;9.57;;;5.67;;
12725;SDS011;6427;49.754;6.106;2023-04-05T02:28:07;7.97;;;5.33;;
12725;SDS011;6427;49.754;6.106;2023-04-05T02:30:34;9.70;;;5.53;;
12725;SDS011;6427;49.754;6.106;2023-04-05T02:33:02;8.52;;;6.57;;
12725;SDS011;6427;49.754;6.106;2023-04-05T02:35:30;9.87;;;5.57;;
12725;SDS011;6427;49.754;6.106;2023-04-05T02:37:57;7.50;;;5.60;;
12725;SDS011;6427;49.754;6.106;2023-04-05T02:40:25;7.23;;;4.80;;
12725;SDS011;6427;49.754;6.106;2023-04-05T02:42:52;6.73;;;5.07;;
12725;SDS011;6427;49.754;6.106;2023-04-05T02:45:20;7.43;;;4.97;;
12725;SDS011;6427;49.754;6.106;2023-04-05T02:47:47;8.25;;;6.18;;
12725;SDS011;6427;49.754;6.106;2023-04-05T02:50:15;8.70;;;5.50;;
12725;SDS011;6427;49.754;6.106;2023-04-05T02:52:43;8.53;;;5.60;;
12725;SDS011;6427;49.754;6.106;2023-04-05T02:55:10;6.07;;;4.50;;
12725;SDS011;6427;49.754;6.106;2023-04-05T02:57:38;10.60;;;5.33;;
12725;SDS011;6427;49.754;6.106;2023-04-05T03:00:05;7.57;;;4.77;;
12725;SDS011;6427;49.754;6.106;2023-04-05T03:02:33;11.77;;;7.15;;
12725;SDS011;6427;49.754;6.106;2023-04-05T03:05:00;12.93;;;6.33;;
12725;SDS011;6427;49.754;6.106;2023-04-05T03:07:28;9.57;;;4.90;;
12725;SDS011;6427;49.754;6.106;2023-04-05T03:09:55;8.37;;;5.30;;
12725;SDS011;6427;49.754;6.106;2023-04-05T03:12:23;9.50;;;5.10;;
12725;SDS011;6427;49.754;6.106;2023-04-05T03:14:51;10.27;;;7.20;;
12725;SDS011;6427;49.754;6.106;2023-04-05T03:17:18;9.93;;;6.40;;
12725;SDS011;6427;49.754;6.106;2023-04-05T03:19:46;7.17;;;5.30;;
12725;SDS011;6427;49.754;6.106;2023-04-05T03:22:13;9.20;;;5.40;;
12725;SDS011;6427;49.754;6.106;2023-04-05T03:24:41;12.03;;;6.03;;
12725;SDS011;6427;49.754;6.106;2023-04-05T03:27:08;8.67;;;5.57;;
12725;SDS011;6427;49.754;6.106;2023-04-05T03:29:36;9.43;;;5.50;;
12725;SDS011;6427;49.754;6.106;2023-04-05T03:32:03;11.53;;;5.67;;
12725;SDS011;6427;49.754;6.106;2023-04-05T03:34:31;11.90;;;7.47;;
12725;SDS011;6427;49.754;6.106;2023-04-05T03:36:59;11.57;;;5.83;;
12725;SDS011;6427;49.754;6.106;2023-04-05T03:39:26;8.87;;;5.70;;
12725;SDS011;6427;49.754;6.106;2023-04-05T03:41:54;9.27;;;6.47;;
12725;SDS011;6427;49.754;6.106;2023-04-05T03:44:21;9.23;;;5.47;;
12725;SDS011;6427;49.754;6.106;2023-04-05T03:46:49;8.30;;;5.13;;
12725;SDS011;6427;49.754;6.106;2023-04-05T03:49:16;8.60;;;5.60;;
12725;SDS011;6427;49.754;6.106;2023-04-05T03:51:44;8.27;;;5.50;;
12725;SDS011;6427;49.754;6.106;2023-04-05T03:54:11;7.60;;;5.20;;
12725;SDS011;6427;49.754;6.106;2023-04-05T03:56:39;9.80;;;6.10;;
12725;SDS011;6427;49.754;6.106;2023-04-05T03:59:07;10.60;;;6.47;;
12725;SDS011;6427;49.754;6.106;2023-04-05T04:01:34;10.43;;;5.87;;
12725;SDS011;6427;49.754;6.106;2023-04-05T04:04:02;10.33;;;6.10;;
12725;SDS011;6427;49.754;6.106;2023-04-05T04:06:29;9.60;;;5.30;;
12725;SDS011;6427;49.754;6.106;2023-04-05T04:08:57;10.77;;;7.28;;
12725;SDS011;6427;49.754;6.106;2023-04-05T04:11:24;9.77;;;6.00;;
12725;SDS011;6427;49.754;6.106;2023-04-05T04:13:52;11.32;;;8.32;;
12725;SDS011;6427;49.754;6.106;2023-04-05T04:16:19;9.40;;;5.87;;
12725;SDS011;6427;49.754;6.106;2023-04-05T04:18:47;12.43;;;6.13;;
12725;SDS011;6427;49.754;6.106;2023-04-05T04:21:14;8.57;;;5.83;;
12725;SDS011;6427;49.754;6.106;2023-04-05T04:23:42;10.60;;;7.70;;
12725;SDS011;6427;49.754;6.106;2023-04-05T04:26:10;10.48;;;7.15;;
12725;SDS011;6427;49.754;6.106;2023-04-05T04:28:37;8.73;;;6.10;;
12725;SDS011;6427;49.754;6.106;2023-04-05T04:31:05;8.43;;;5.43;;
12725;SDS011;6427;49.754;6.106;2023-04-05T04:33:33;11.10;;;7.22;;
12725;SDS011;6427;49.754;6.106;2023-04-05T04:36:04;10.40;;;6.53;;
12725;SDS011;6427;49.754;6.106;2023-04-05T04:38:28;10.50;;;7.50;;
12725;SDS011;6427;49.754;6.106;2023-04-05T04:40:56;18.90;;;6.60;;
12725;SDS011;6427;49.754;6.106;2023-04-05T04:43:23;12.10;;;5.90;;
12725;SDS011;6427;49.754;6.106;2023-04-05T04:45:53;15.73;;;8.20;;
12725;SDS011;6427;49.754;6.106;2023-04-05T04:48:21;19.53;;;6.93;;
12725;SDS011;6427;49.754;6.106;2023-04-05T04:50:48;9.60;;;5.90;;
12725;SDS011;6427;49.754;6.106;2023-04-05T04:53:16;10.27;;;5.77;;
12725;SDS011;6427;49.754;6.106;2023-04-05T04:55:43;8.17;;;5.20;;
12725;SDS011;6427;49.754;6.106;2023-04-05T04:58:12;16.33;;;5.40;;
12725;SDS011;6427;49.754;6.106;2023-04-05T05:00:39;8.33;;;5.07;;
12725;SDS011;6427;49.754;6.106;2023-04-05T05:03:06;9.73;;;5.37;;
12725;SDS011;6427;49.754;6.106;2023-04-05T05:05:34;8.67;;;5.13;;
12725;SDS011;6427;49.754;6.106;2023-04-05T05:08:01;17.27;;;6.70;;
12725;SDS011;6427;49.754;6.106;2023-04-05T05:10:29;17.23;;;6.10;;
12725;SDS011;6427;49.754;6.106;2023-04-05T05:12:56;11.87;;;6.13;;
12725;SDS011;6427;49.754;6.106;2023-04-05T05:15:24;9.23;;;5.70;;
12725;SDS011;6427;49.754;6.106;2023-04-05T05:17:51;9.73;;;5.57;;
12725;SDS011;6427;49.754;6.106;2023-04-05T05:20:19;10.80;;;5.80;;
12725;SDS011;6427;49.754;6.106;2023-04-05T05:22:46;11.77;;;5.73;;
12725;SDS011;6427;49.754;6.106;2023-04-05T05:25:14;12.23;;;5.80;;
12725;SDS011;6427;49.754;6.106;2023-04-05T05:27:42;10.43;;;6.23;;
12725;SDS011;6427;49.754;6.106;2023-04-05T05:30:09;11.57;;;8.32;;
12725;SDS011;6427;49.754;6.106;2023-04-05T05:32:37;10.83;;;6.63;;
12725;SDS011;6427;49.754;6.106;2023-04-05T05:35:04;12.97;;;6.87;;
12725;SDS011;6427;49.754;6.106;2023-04-05T05:37:32;11.23;;;6.50;;
12725;SDS011;6427;49.754;6.106;2023-04-05T05:40:00;9.10;;;5.60;;
12725;SDS011;6427;49.754;6.106;2023-04-05T05:42:27;10.07;;;5.70;;
12725;SDS011;6427;49.754;6.106;2023-04-05T05:44:55;10.43;;;5.40;;
12725;SDS011;6427;49.754;6.106;2023-04-05T05:47:22;9.23;;;5.47;;
12725;SDS011;6427;49.754;6.106;2023-04-05T05:49:50;10.37;;;5.70;;
12725;SDS011;6427;49.754;6.106;2023-04-05T05:52:17;10.40;;;6.23;;
12725;SDS011;6427;49.754;6.106;2023-04-05T05:54:45;8.97;;;5.70;;
12725;SDS011;6427;49.754;6.106;2023-04-05T05:57:13;11.73;;;5.87;;
12725;SDS011;6427;49.754;6.106;2023-04-05T05:59:40;16.27;;;6.67;;
12725;SDS011;6427;49.754;6.106;2023-04-05T06:02:08;9.57;;;5.70;;
12725;SDS011;6427;49.754;6.106;2023-04-05T06:04:35;9.20;;;5.40;;
12725;SDS011;6427;49.754;6.106;2023-04-05T06:07:03;9.13;;;6.10;;
12725;SDS011;6427;49.754;6.106;2023-04-05T06:09:30;12.83;;;5.87;;
12725;SDS011;6427;49.754;6.106;2023-04-05T06:11:58;9.17;;;5.83;;
12725;SDS011;6427;49.754;6.106;2023-04-05T06:14:26;9.20;;;6.20;;
12725;SDS011;6427;49.754;6.106;2023-04-05T06:16:53;10.67;;;6.13;;
12725;SDS011;6427;49.754;6.106;2023-04-05T06:19:21;12.70;;;8.02;;
12725;SDS011;6427;49.754;6.106;2023-04-05T06:21:48;14.00;;;8.82;;
12725;SDS011;6427;49.754;6.106;2023-04-05T06:24:16;9.43;;;6.17;;
12725;SDS011;6427;49.754;6.106;2023-04-05T06:26:43;12.60;;;6.57;;
12725;SDS011;6427;49.754;6.106;2023-04-05T06:29:11;13.83;;;7.87;;
12725;SDS011;6427;49.754;6.106;2023-04-05T06:31:38;12.80;;;6.63;;
12725;SDS011;6427;49.754;6.106;2023-04-05T06:34:06;13.13;;;6.50;;
12725;SDS011;6427;49.754;6.106;2023-04-05T06:36:34;10.07;;;6.23;;
12725;SDS011;6427;49.754;6.106;2023-04-05T06:39:01;13.03;;;6.77;;
12725;SDS011;6427;49.754;6.106;2023-04-05T06:41:29;11.37;;;7.37;;
12725;SDS011;6427;49.754;6.106;2023-04-05T06:43:56;13.20;;;6.57;;
12725;SDS011;6427;49.754;6.106;2023-04-05T06:46:24;13.10;;;7.20;;
12725;SDS011;6427;49.754;6.106;2023-04-05T06:48:51;12.87;;;6.87;;
12725;SDS011;6427;49.754;6.106;2023-04-05T06:51:19;13.43;;;6.83;;
12725;SDS011;6427;49.754;6.106;2023-04-05T06:53:46;14.10;;;7.40;;
12725;SDS011;6427;49.754;6.106;2023-04-05T06:56:14;14.13;;;9.23;;
12725;SDS011;6427;49.754;6.106;2023-04-05T06:58:41;13.63;;;8.33;;
12725;SDS011;6427;49.754;6.106;2023-04-05T07:01:09;11.90;;;7.73;;
12725;SDS011;6427;49.754;6.106;2023-04-05T07:03:37;11.97;;;7.33;;
12725;SDS011;6427;49.754;6.106;2023-04-05T07:06:04;11.53;;;6.77;;
12725;SDS011;6427;49.754;6.106;2023-04-05T07:08:32;10.63;;;7.07;;
12725;SDS011;6427;49.754;6.106;2023-04-05T07:10:59;10.83;;;6.37;;
12725;SDS011;6427;49.754;6.106;2023-04-05T07:13:27;11.20;;;6.80;;
12725;SDS011;6427;49.754;6.106;2023-04-05T07:16:01;13.10;;;6.63;;
12725;SDS011;6427;49.754;6.106;2023-04-05T07:18:28;8.77;;;5.93;;
12725;SDS011;6427;49.754;6.106;2023-04-05T07:20:56;11.40;;;7.60;;
12725;SDS011;6427;49.754;6.106;2023-04-05T07:23:23;9.70;;;6.97;;
12725;SDS011;6427;49.754;6.106;2023-04-05T07:25:51;12.10;;;6.70;;
12725;SDS011;6427;49.754;6.106;2023-04-05T07:28:18;11.10;;;6.47;;
12725;SDS011;6427;49.754;6.106;2023-04-05T07:30:46;11.40;;;6.67;;
12725;SDS011;6427;49.754;6.106;2023-04-05T07:33:13;9.57;;;6.30;;
12725;SDS011;6427;49.754;6.106;2023-04-05T07:35:41;10.17;;;6.20;;
12725;SDS011;6427;49.754;6.106;2023-04-05T07:38:09;9.10;;;6.20;;
12725;SDS011;6427;49.754;6.106;2023-04-05T07:40:37;8.67;;;5.63;;
12725;SDS011;6427;49.754;6.106;2023-04-05T07:43:04;13.17;;;5.97;;
12725;SDS011;6427;49.754;6.106;2023-04-05T07:45:32;11.10;;;6.23;;
12725;SDS011;6427;49.754;6.106;2023-04-05T07:47:59;9.43;;;6.20;;
12725;SDS011;6427;49.754;6.106;2023-04-05T07:50:27;10.60;;;6.37;;
12725;SDS011;6427;49.754;6.106;2023-04-05T07:52:54;9.80;;;6.30;;
12725;SDS011;6427;49.754;6.106;2023-04-05T07:55:22;11.30;;;6.13;;
12725;SDS011;6427;49.754;6.106;2023-04-05T07:57:50;10.40;;;6.07;;
12725;SDS011;6427;49.754;6.106;2023-04-05T08:00:17;9.70;;;5.63;;
12725;SDS011;6427;49.754;6.106;2023-04-05T08:02:45;9.57;;;5.77;;
12725;SDS011;6427;49.754;6.106;2023-04-05T08:05:12;9.63;;;5.23;;
12725;SDS011;6427;49.754;6.106;2023-04-05T08:07:40;8.67;;;6.27;;
12725;SDS011;6427;49.754;6.106;2023-04-05T08:10:07;9.93;;;5.87;;
12725;SDS011;6427;49.754;6.106;2023-04-05T08:12:35;13.67;;;6.40;;
12725;SDS011;6427;49.754;6.106;2023-04-05T08:15:02;10.18;;;6.78;;
12725;SDS011;6427;49.754;6.106;2023-04-05T08:17:30;10.40;;;6.37;;
12725;SDS011;6427;49.754;6.106;2023-04-05T08:19:57;13.53;;;6.23;;
12725;SDS011;6427;49.754;6.106;2023-04-05T08:22:28;10.87;;;5.97;;
12725;SDS011;6427;49.754;6.106;2023-04-05T08:24:56;11.32;;;6.43;;
12725;SDS011;6427;49.754;6.106;2023-04-05T08:27:23;14.27;;;7.25;;
12725;SDS011;6427;49.754;6.106;2023-04-05T08:29:51;10.77;;;6.40;;
12725;SDS011;6427;49.754;6.106;2023-04-05T08:32:18;10.83;;;5.27;;
12725;SDS011;6427;49.754;6.106;2023-04-05T08:34:46;10.27;;;6.13;;
12725;SDS011;6427;49.754;6.106;2023-04-05T08:37:14;11.23;;;6.67;;
12725;SDS011;6427;49.754;6.106;2023-04-05T08:39:41;11.17;;;6.70;;
12725;SDS011;6427;49.754;6.106;2023-04-05T08:44:39;14.20;;;6.33;;
12725;SDS011;6427;49.754;6.106;2023-04-05T08:47:07;11.57;;;6.43;;
12725;SDS011;6427;49.754;6.106;2023-04-05T08:49:34;12.30;;;6.73;;
12725;SDS011;6427;49.754;6.106;2023-04-05T08:52:02;10.47;;;5.90;;
12725;SDS011;6427;49.754;6.106;2023-04-05T08:54:30;11.93;;;6.63;;
12725;SDS011;6427;49.754;6.106;2023-04-05T08:56:57;9.03;;;6.03;;
12725;SDS011;6427;49.754;6.106;2023-04-05T08:59:25;10.63;;;6.13;;
12725;SDS011;6427;49.754;6.106;2023-04-05T09:01:52;11.33;;;6.43;;
12725;SDS011;6427;49.754;6.106;2023-04-05T09:04:21;12.50;;;6.30;;
12725;SDS011;6427;49.754;6.106;2023-04-05T09:06:50;10.63;;;6.30;;
12725;SDS011;6427;49.754;6.106;2023-04-05T09:09:18;9.43;;;5.93;;
12725;SDS011;6427;49.754;6.106;2023-04-05T09:11:45;12.23;;;5.97;;
12725;SDS011;6427;49.754;6.106;2023-04-05T09:14:13;9.03;;;5.90;;
12725;SDS011;6427;49.754;6.106;2023-04-05T09:16:40;7.27;;;4.90;;
12725;SDS011;6427;49.754;6.106;2023-04-05T09:19:08;9.25;;;6.05;;
12725;SDS011;6427;49.754;6.106;2023-04-05T09:24:30;6.63;;;4.33;;
12725;SDS011;6427;49.754;6.106;2023-04-05T09:27:10;7.73;;;4.93;;
12725;SDS011;6427;49.754;6.106;2023-04-05T09:29:37;9.73;;;5.37;;
12725;SDS011;6427;49.754;6.106;2023-04-05T09:32:05;8.10;;;5.50;;
12725;SDS011;6427;49.754;6.106;2023-04-05T09:34:32;10.50;;;4.90;;
12725;SDS011;6427;49.754;6.106;2023-04-05T09:36:59;11.63;;;4.70;;
12725;SDS011;6427;49.754;6.106;2023-04-05T09:39:28;8.93;;;5.50;;
12725;SDS011;6427;49.754;6.106;2023-04-05T09:42:29;8.88;;;5.65;;
12725;SDS011;6427;49.754;6.106;2023-04-05T09:47:17;7.20;;;5.13;;
12725;SDS011;6427;49.754;6.106;2023-04-05T09:49:44;7.33;;;5.20;;
12725;SDS011;6427;49.754;6.106;2023-04-05T09:52:18;8.33;;;5.23;;
12725;SDS011;6427;49.754;6.106;2023-04-05T09:54:47;9.27;;;5.60;;
12725;SDS011;6427;49.754;6.106;2023-04-05T09:57:15;7.70;;;5.10;;
12725;SDS011;6427;49.754;6.106;2023-04-05T09:59:43;9.30;;;5.10;;
12725;SDS011;6427;49.754;6.106;2023-04-05T10:02:10;6.80;;;4.50;;
12725;SDS011;6427;49.754;6.106;2023-04-05T10:04:41;8.57;;;5.27;;
12725;SDS011;6427;49.754;6.106;2023-04-05T10:07:08;7.63;;;5.63;;
12725;SDS011;6427;49.754;6.106;2023-04-05T10:09:36;8.47;;;5.50;;
12725;SDS011;6427;49.754;6.106;2023-04-05T10:12:03;10.57;;;5.80;;
12725;SDS011;6427;49.754;6.106;2023-04-05T10:14:31;9.35;;;5.68;;
12725;SDS011;6427;49.754;6.106;2023-04-05T10:17:02;8.00;;;5.03;;
12725;SDS011;6427;49.754;6.106;2023-04-05T10:19:28;9.10;;;5.63;;
12725;SDS011;6427;49.754;6.106;2023-04-05T10:21:53;7.63;;;5.40;;
12725;SDS011;6427;49.754;6.106;2023-04-05T10:24:27;6.20;;;4.50;;
12725;SDS011;6427;49.754;6.106;2023-04-05T10:27:04;6.33;;;4.30;;
12725;SDS011;6427;49.754;6.106;2023-04-05T10:29:37;7.47;;;5.10;;
12725;SDS011;6427;49.754;6.106;2023-04-05T10:32:06;7.87;;;5.47;;
12725;SDS011;6427;49.754;6.106;2023-04-05T10:34:39;7.53;;;4.73;;
12725;SDS011;6427;49.754;6.106;2023-04-05T10:37:05;7.33;;;4.63;;
12725;SDS011;6427;49.754;6.106;2023-04-05T10:42:10;6.80;;;4.87;;
12725;SDS011;6427;49.754;6.106;2023-04-05T10:44:38;6.67;;;4.70;;
12725;SDS011;6427;49.754;6.106;2023-04-05T10:47:06;7.00;;;4.83;;
12725;SDS011;6427;49.754;6.106;2023-04-05T10:49:38;8.98;;;5.60;;
12725;SDS011;6427;49.754;6.106;2023-04-05T10:52:06;5.83;;;4.80;;
12725;SDS011;6427;49.754;6.106;2023-04-05T10:54:34;9.17;;;4.90;;
12725;SDS011;6427;49.754;6.106;2023-04-05T10:57:02;6.87;;;4.87;;
12725;SDS011;6427;49.754;6.106;2023-04-05T10:59:29;6.23;;;4.53;;
12725;SDS011;6427;49.754;6.106;2023-04-05T11:01:57;5.07;;;4.27;;
12725;SDS011;6427;49.754;6.106;2023-04-05T11:04:24;9.20;;;4.70;;
12725;SDS011;6427;49.754;6.106;2023-04-05T11:07:10;7.43;;;4.73;;
12725;SDS011;6427;49.754;6.106;2023-04-05T11:09:37;6.47;;;4.50;;
12725;SDS011;6427;49.754;6.106;2023-04-05T11:12:04;8.13;;;4.30;;
12725;SDS011;6427;49.754;6.106;2023-04-05T11:14:35;8.50;;;5.23;;
12725;SDS011;6427;49.754;6.106;2023-04-05T11:17:02;7.33;;;4.67;;
12725;SDS011;6427;49.754;6.106;2023-04-05T11:22:09;7.00;;;4.83;;
12725;SDS011;6427;49.754;6.106;2023-04-05T11:24:49;6.87;;;3.60;;
12725;SDS011;6427;49.754;6.106;2023-04-05T11:29:56;6.87;;;4.60;;
12725;SDS011;6427;49.754;6.106;2023-04-05T11:32:23;6.53;;;4.50;;
12725;SDS011;6427;49.754;6.106;2023-04-05T11:35:00;6.67;;;4.53;;
12725;SDS011;6427;49.754;6.106;2023-04-05T11:40:25;7.00;;;4.77;;
12725;SDS011;6427;49.754;6.106;2023-04-05T11:43:02;7.23;;;4.60;;
12725;SDS011;6427;49.754;6.106;2023-04-05T11:45:25;9.23;;;5.07;;
12725;SDS011;6427;49.754;6.106;2023-04-05T11:47:52;7.40;;;4.60;;
12725;SDS011;6427;49.754;6.106;2023-04-05T11:50:20;6.30;;;4.57;;
12725;SDS011;6427;49.754;6.106;2023-04-05T11:53:06;7.60;;;4.30;;
12725;SDS011;6427;49.754;6.106;2023-04-05T11:55:16;7.90;;;4.10;;
12725;SDS011;6427;49.754;6.106;2023-04-05T11:57:43;8.03;;;4.83;;
12725;SDS011;6427;49.754;6.106;2023-04-05T12:00:10;6.83;;;4.30;;
12725;SDS011;6427;49.754;6.106;2023-04-05T12:02:41;7.20;;;4.07;;
12725;SDS011;6427;49.754;6.106;2023-04-05T12:05:05;6.97;;;4.00;;
12725;SDS011;6427;49.754;6.106;2023-04-05T12:07:33;6.80;;;4.43;;
12725;SDS011;6427;49.754;6.106;2023-04-05T12:10:07;7.13;;;4.30;;
12725;SDS011;6427;49.754;6.106;2023-04-05T12:12:38;6.07;;;4.13;;
12725;SDS011;6427;49.754;6.106;2023-04-05T12:15:05;6.27;;;4.07;;
12725;SDS011;6427;49.754;6.106;2023-04-05T12:17:45;7.03;;;5.55;;
12725;SDS011;6427;49.754;6.106;2023-04-05T12:20:12;6.50;;;4.50;;
12725;SDS011;6427;49.754;6.106;2023-04-05T12:22:42;7.80;;;4.07;;
12725;SDS011;6427;49.754;6.106;2023-04-05T12:25:09;7.23;;;4.70;;
12725;SDS011;6427;49.754;6.106;2023-04-05T12:27:37;5.93;;;4.10;;
12725;SDS011;6427;49.754;6.106;2023-04-05T12:32:44;5.13;;;4.13;;
12725;SDS011;6427;49.754;6.106;2023-04-05T12:35:14;7.17;;;4.10;;
12725;SDS011;6427;49.754;6.106;2023-04-05T12:37:41;8.70;;;4.47;;
12725;SDS011;6427;49.754;6.106;2023-04-05T12:40:09;6.93;;;4.10;;
12725;SDS011;6427;49.754;6.106;2023-04-05T12:42:37;7.63;;;4.57;;
12725;SDS011;6427;49.754;6.106;2023-04-05T12:45:10;8.20;;;4.63;;
12725;SDS011;6427;49.754;6.106;2023-04-05T12:47:47;9.47;;;4.60;;
12725;SDS011;6427;49.754;6.106;2023-04-05T12:50:32;6.30;;;4.70;;
12725;SDS011;6427;49.754;6.106;2023-04-05T12:52:56;6.63;;;4.77;;
12725;SDS011;6427;49.754;6.106;2023-04-05T12:55:24;6.87;;;4.30;;
12725;SDS011;6427;49.754;6.106;2023-04-05T12:57:51;8.03;;;5.13;;
12725;SDS011;6427;49.754;6.106;2023-04-05T13:00:18;7.57;;;5.55;;
12725;SDS011;6427;49.754;6.106;2023-04-05T13:02:49;7.53;;;4.87;;
12725;SDS011;6427;49.754;6.106;2023-04-05T13:05:16;7.17;;;4.47;;
12725;SDS011;6427;49.754;6.106;2023-04-05T13:07:44;7.87;;;4.53;;
12725;SDS011;6427;49.754;6.106;2023-04-05T13:10:11;7.50;;;4.73;;
12725;SDS011;6427;49.754;6.106;2023-04-05T13:12:39;8.40;;;5.43;;
12725;SDS011;6427;49.754;6.106;2023-04-05T13:15:07;6.90;;;5.33;;
12725;SDS011;6427;49.754;6.106;2023-04-05T13:17:34;6.93;;;4.80;;
12725;SDS011;6427;49.754;6.106;2023-04-05T13:20:02;7.57;;;5.23;;
12725;SDS011;6427;49.754;6.106;2023-04-05T13:22:29;5.87;;;4.67;;
12725;SDS011;6427;49.754;6.106;2023-04-05T13:24:57;7.00;;;5.03;;
12725;SDS011;6427;49.754;6.106;2023-04-05T13:27:25;6.90;;;4.67;;
12725;SDS011;6427;49.754;6.106;2023-04-05T13:29:52;6.43;;;4.60;;
12725;SDS011;6427;49.754;6.106;2023-04-05T13:32:20;7.37;;;5.10;;
12725;SDS011;6427;49.754;6.106;2023-04-05T13:34:47;9.07;;;5.27;;
12725;SDS011;6427;49.754;6.106;2023-04-05T13:37:15;10.55;;;5.95;;
12725;SDS011;6427;49.754;6.106;2023-04-05T13:39:42;7.20;;;4.40;;
12725;SDS011;6427;49.754;6.106;2023-04-05T13:42:10;8.53;;;5.30;;
12725;SDS011;6427;49.754;6.106;2023-04-05T13:44:37;10.80;;;5.70;;
12725;SDS011;6427;49.754;6.106;2023-04-05T13:47:05;8.70;;;5.77;;
12725;SDS011;6427;49.754;6.106;2023-04-05T13:49:33;10.30;;;5.20;;
12725;SDS011;6427;49.754;6.106;2023-04-05T13:52:00;8.37;;;5.77;;
12725;SDS011;6427;49.754;6.106;2023-04-05T13:54:28;8.20;;;5.27;;
12725;SDS011;6427;49.754;6.106;2023-04-05T13:56:55;9.07;;;5.13;;
12725;SDS011;6427;49.754;6.106;2023-04-05T13:59:23;8.57;;;5.13;;
12725;SDS011;6427;49.754;6.106;2023-04-05T14:01:50;8.80;;;5.57;;
12725;SDS011;6427;49.754;6.106;2023-04-05T14:04:18;7.63;;;5.37;;
12725;SDS011;6427;49.754;6.106;2023-04-05T14:06:45;10.40;;;5.17;;
12725;SDS011;6427;49.754;6.106;2023-04-05T14:09:13;7.63;;;5.43;;
12725;SDS011;6427;49.754;6.106;2023-04-05T14:11:40;8.17;;;5.20;;
12725;SDS011;6427;49.754;6.106;2023-04-05T14:14:08;7.90;;;5.63;;
12725;SDS011;6427;49.754;6.106;2023-04-05T14:16:36;8.30;;;6.17;;
12725;SDS011;6427;49.754;6.106;2023-04-05T14:19:04;7.45;;;6.18;;
12725;SDS011;6427;49.754;6.106;2023-04-05T14:21:31;9.80;;;6.65;;
12725;SDS011;6427;49.754;6.106;2023-04-05T14:23:59;8.33;;;5.60;;
12725;SDS011;6427;49.754;6.106;2023-04-05T14:26:26;11.90;;;6.17;;
12725;SDS011;6427;49.754;6.106;2023-04-05T14:28:54;7.47;;;5.43;;
12725;SDS011;6427;49.754;6.106;2023-04-05T14:31:21;8.52;;;6.05;;
12725;SDS011;6427;49.754;6.106;2023-04-05T14:33:49;8.00;;;5.57;;
12725;SDS011;6427;49.754;6.106;2023-04-05T14:36:17;9.50;;;5.57;;
12725;SDS011;6427;49.754;6.106;2023-04-05T14:38:44;9.03;;;5.60;;
12725;SDS011;6427;49.754;6.106;2023-04-05T14:41:12;9.00;;;5.80;;
12725;SDS011;6427;49.754;6.106;2023-04-05T14:43:39;12.90;;;6.40;;
12725;SDS011;6427;49.754;6.106;2023-04-05T14:46:07;9.67;;;5.77;;
12725;SDS011;6427;49.754;6.106;2023-04-05T14:48:34;8.40;;;5.67;;
12725;SDS011;6427;49.754;6.106;2023-04-05T14:51:02;8.13;;;5.90;;
12725;SDS011;6427;49.754;6.106;2023-04-05T14:53:29;8.00;;;6.23;;
12725;SDS011;6427;49.754;6.106;2023-04-05T14:55:57;8.43;;;5.37;;
12725;SDS011;6427;49.754;6.106;2023-04-05T14:58:24;8.83;;;6.20;;
12725;SDS011;6427;49.754;6.106;2023-04-05T15:00:52;9.70;;;5.93;;
12725;SDS011;6427;49.754;6.106;2023-04-05T15:03:20;11.63;;;5.73;;
12725;SDS011;6427;49.754;6.106;2023-04-05T15:05:47;10.07;;;6.33;;
12725;SDS011;6427;49.754;6.106;2023-04-05T15:08:15;7.70;;;5.90;;
12725;SDS011;6427;49.754;6.106;2023-04-05T15:10:42;7.83;;;6.03;;
12725;SDS011;6427;49.754;6.106;2023-04-05T15:13:10;11.40;;;6.50;;
12725;SDS011;6427;49.754;6.106;2023-04-05T15:15:37;10.77;;;6.20;;
12725;SDS011;6427;49.754;6.106;2023-04-05T15:18:05;9.53;;;5.93;;
12725;SDS011;6427;49.754;6.106;2023-04-05T15:20:33;9.18;;;6.10;;
12725;SDS011;6427;49.754;6.106;2023-04-05T15:23:00;8.90;;;5.90;;
12725;SDS011;6427;49.754;6.106;2023-04-05T15:25:28;9.10;;;5.20;;